createdAt,value
2022-07-29T00:02:25.900Z,4.70
2022-07-29T00:04:52.659Z,5.22
2022-07-29T00:07:19.672Z,5.13
2022-07-29T00:09:52.139Z,5.53
2022-07-29T00:12:26.365Z,5.13
2022-07-29T00:14:55.343Z,5.30
2022-07-29T00:17:22.421Z,4.80
2022-07-29T00:19:49.155Z,5.28
2022-07-29T00:22:16.028Z,5.68
2022-07-29T00:24:42.671Z,5.32
2022-07-29T00:27:09.365Z,5.20
2022-07-29T00:29:36.125Z,4.53
2022-07-29T00:32:03.647Z,4.20
2022-07-29T00:34:49.629Z,4.00
2022-07-29T00:37:16.553Z,4.63
2022-07-29T00:39:43.420Z,4.72
2022-07-29T00:42:10.835Z,5.88
2022-07-29T00:44:42.386Z,5.30
2022-07-29T00:47:10.895Z,5.10
2022-07-29T00:49:40.496Z,4.35
2022-07-29T00:52:08.815Z,3.90
2022-07-29T00:54:39.846Z,4.00
2022-07-29T00:57:12.411Z,4.57
2022-07-29T00:59:39.262Z,4.45
2022-07-29T01:02:06.325Z,4.30
2022-07-29T01:04:33.406Z,4.20
2022-07-29T01:07:02.773Z,4.13
2022-07-29T01:09:40.836Z,4.22
2022-07-29T01:12:20.284Z,3.72
2022-07-29T01:14:48.758Z,4.80
2022-07-29T01:17:25.177Z,4.82
2022-07-29T01:20:16.139Z,4.60
2022-07-29T01:23:09.734Z,4.75
2022-07-29T01:25:53.123Z,5.93
2022-07-29T01:28:57.531Z,4.10
2022-07-29T01:31:32.438Z,4.10
2022-07-29T01:34:06.414Z,4.00
2022-07-29T01:36:38.161Z,4.15
2022-07-29T01:39:22.799Z,3.67
2022-07-29T01:41:57.512Z,3.90
2022-07-29T01:44:32.803Z,3.60
2022-07-29T01:47:06.010Z,3.55
2022-07-29T01:49:37.074Z,3.88
2022-07-29T01:52:12.291Z,3.37
2022-07-29T01:54:43.961Z,3.42
2022-07-29T01:57:18.412Z,3.83
2022-07-29T01:59:48.094Z,3.60
2022-07-29T02:02:17.519Z,3.63
2022-07-29T02:04:49.380Z,3.53
2022-07-29T02:09:47.508Z,3.50
2022-07-29T02:12:17.498Z,3.38
2022-07-29T02:14:48.780Z,3.17
2022-07-29T02:17:20.901Z,3.42
2022-07-29T02:19:50.029Z,3.60
2022-07-29T02:22:19.445Z,3.55
2022-07-29T02:24:48.672Z,4.25
2022-07-29T02:27:16.268Z,3.67
2022-07-29T02:29:44.203Z,4.00
2022-07-29T02:32:13.603Z,4.30
2022-07-29T02:34:41.465Z,4.50
2022-07-29T02:37:10.858Z,4.50
2022-07-29T02:39:39.927Z,4.90
2022-07-29T02:42:09.500Z,4.63
2022-07-29T02:44:36.971Z,5.03
2022-07-29T02:47:25.565Z,5.00
2022-07-29T02:50:05.447Z,4.50
2022-07-29T02:53:15.659Z,4.70
2022-07-29T02:55:46.950Z,4.35
2022-07-29T02:58:29.534Z,4.75
2022-07-29T03:01:06.561Z,4.63
2022-07-29T03:03:39.922Z,4.43
2022-07-29T03:06:08.621Z,4.43
2022-07-29T03:08:56.363Z,3.75
2022-07-29T03:11:42.243Z,4.25
2022-07-29T03:14:11.144Z,4.18
2022-07-29T03:16:41.339Z,4.20
2022-07-29T03:19:08.575Z,4.07
2022-07-29T03:21:35.434Z,4.40
2022-07-29T03:24:04.516Z,4.28
2022-07-29T03:26:35.026Z,4.72
2022-07-29T03:29:01.694Z,4.28
2022-07-29T03:31:28.420Z,4.38
2022-07-29T03:33:55.193Z,4.28
2022-07-29T03:36:21.854Z,4.20
2022-07-29T03:38:50.274Z,4.35
2022-07-29T03:41:19.140Z,4.63
2022-07-29T03:43:51.886Z,4.70
2022-07-29T03:46:21.870Z,4.10
2022-07-29T03:48:53.874Z,4.10
2022-07-29T03:51:33.329Z,4.85
2022-07-29T03:54:06.384Z,4.22
2022-07-29T03:56:40.651Z,4.03
2022-07-29T03:59:08.679Z,4.78
2022-07-29T04:01:36.419Z,4.45
2022-07-29T04:04:03.810Z,4.60
2022-07-29T04:06:39.213Z,4.47
2022-07-29T04:09:05.877Z,3.95
2022-07-29T04:12:02.612Z,4.45
2022-07-29T04:14:24.557Z,4.20
2022-07-29T04:16:51.252Z,4.68
2022-07-29T04:19:17.926Z,4.63
2022-07-29T04:21:46.225Z,4.38
2022-07-29T04:24:13.207Z,4.90
2022-07-29T04:26:40.147Z,4.38
2022-07-29T04:29:06.801Z,3.67
2022-07-29T04:31:33.579Z,4.50
2022-07-29T04:34:00.306Z,4.60
2022-07-29T04:36:29.571Z,4.43
2022-07-29T04:38:56.879Z,4.72
2022-07-29T04:41:23.646Z,4.68
2022-07-29T04:44:01.956Z,6.13
2022-07-29T04:46:29.292Z,5.78
2022-07-29T04:48:56.436Z,5.63
2022-07-29T04:51:23.495Z,6.03
2022-07-29T04:53:50.207Z,5.95
2022-07-29T04:56:16.925Z,6.45
2022-07-29T04:58:43.649Z,5.10
2022-07-29T05:01:10.443Z,4.70
2022-07-29T05:03:37.170Z,3.75
2022-07-29T05:06:04.053Z,3.47
2022-07-29T05:08:30.772Z,3.53
2022-07-29T05:10:57.470Z,2.85
2022-07-29T05:13:24.524Z,2.88
2022-07-29T05:15:51.309Z,4.60
2022-07-29T05:18:18.073Z,3.85
2022-07-29T05:20:44.894Z,3.90
2022-07-29T05:23:13.856Z,3.85
2022-07-29T05:25:44.251Z,3.40
2022-07-29T05:28:12.392Z,3.17
2022-07-29T05:30:39.242Z,3.10
2022-07-29T05:33:05.957Z,3.53
2022-07-29T05:35:32.667Z,3.50
2022-07-29T05:37:59.343Z,4.00
2022-07-29T05:40:26.037Z,4.45
2022-07-29T05:42:52.852Z,5.05
2022-07-29T05:45:19.674Z,5.25
2022-07-29T05:47:46.616Z,5.30
2022-07-29T05:50:13.530Z,5.93
2022-07-29T05:52:40.313Z,7.60
2022-07-29T05:55:07.262Z,6.70
2022-07-29T05:57:34.042Z,7.45
2022-07-29T06:00:00.831Z,8.05
2022-07-29T06:02:27.794Z,8.20
2022-07-29T06:04:54.824Z,8.10
2022-07-29T06:07:22.126Z,8.63
2022-07-29T06:09:49.005Z,8.43
2022-07-29T06:12:15.778Z,6.90
2022-07-29T06:14:42.437Z,7.10
2022-07-29T06:17:09.425Z,7.72
2022-07-29T06:19:37.403Z,7.93
2022-07-29T06:22:04.984Z,8.95
2022-07-29T06:24:31.796Z,10.05
2022-07-29T06:26:58.514Z,10.15
2022-07-29T06:29:25.251Z,10.38
2022-07-29T06:31:52.111Z,11.02
2022-07-29T06:34:19.305Z,10.38
2022-07-29T06:36:47.697Z,11.10
2022-07-29T06:39:15.533Z,11.60
2022-07-29T06:41:42.420Z,11.65
2022-07-29T06:44:11.888Z,12.48
2022-07-29T06:46:38.709Z,12.90
2022-07-29T06:49:05.925Z,12.57
2022-07-29T06:51:32.744Z,11.48
2022-07-29T06:54:02.721Z,11.63
2022-07-29T06:56:39.283Z,12.60
2022-07-29T06:59:08.812Z,11.80
2022-07-29T07:01:40.918Z,11.50
2022-07-29T07:04:09.900Z,10.73
2022-07-29T07:06:37.145Z,10.43
2022-07-29T07:09:04.673Z,11.32
2022-07-29T07:11:31.694Z,10.75
2022-07-29T07:14:02.925Z,10.68
2022-07-29T07:16:32.051Z,9.98
2022-07-29T07:18:59.004Z,10.38
2022-07-29T07:21:25.705Z,10.27
2022-07-29T07:23:52.371Z,9.98
2022-07-29T07:26:19.128Z,9.77
2022-07-29T07:28:45.853Z,9.32
2022-07-29T07:31:13.254Z,9.52
2022-07-29T07:33:39.972Z,9.10
2022-07-29T07:36:06.717Z,8.80
2022-07-29T07:38:34.509Z,9.52
2022-07-29T07:41:01.486Z,9.52
2022-07-29T07:43:28.242Z,8.90
2022-07-29T07:45:54.935Z,9.23
2022-07-29T07:48:21.934Z,9.27
2022-07-29T07:50:50.364Z,8.80
2022-07-29T07:53:17.455Z,8.38
2022-07-29T07:56:09.502Z,8.63
2022-07-29T07:58:31.531Z,8.63
2022-07-29T08:00:58.277Z,8.75
2022-07-29T08:03:25.061Z,8.25
2022-07-29T08:05:52.913Z,7.95
2022-07-29T08:08:19.767Z,8.50
2022-07-29T08:10:57.157Z,7.57
2022-07-29T08:13:31.548Z,7.47
2022-07-29T08:16:00.865Z,7.80
2022-07-29T08:18:32.196Z,6.88
2022-07-29T08:20:59.756Z,7.20
2022-07-29T08:23:31.610Z,6.55
2022-07-29T08:26:14.550Z,6.85
2022-07-29T08:28:45.881Z,6.97
2022-07-29T08:31:14.130Z,6.50
2022-07-29T08:33:40.953Z,7.57
2022-07-29T08:36:07.871Z,7.10
2022-07-29T08:38:34.687Z,6.72
2022-07-29T08:41:02.930Z,5.70
2022-07-29T08:43:30.251Z,5.50
2022-07-29T08:45:57.081Z,5.82
2022-07-29T08:48:24.776Z,5.70
2022-07-29T08:50:57.253Z,6.18
2022-07-29T08:53:27.766Z,6.38
2022-07-29T08:55:55.013Z,6.22
2022-07-29T08:58:23.268Z,6.13
2022-07-29T09:00:53.909Z,5.82
2022-07-29T09:03:25.227Z,7.20
2022-07-29T09:05:52.987Z,6.82
2022-07-29T09:08:21.158Z,5.72
2022-07-29T09:10:48.496Z,6.13
2022-07-29T09:13:15.177Z,5.80
2022-07-29T09:15:50.666Z,5.93
2022-07-29T09:18:39.485Z,5.85
2022-07-29T09:21:26.680Z,5.20
2022-07-29T09:24:03.958Z,5.75
2022-07-29T09:26:32.480Z,5.40
2022-07-29T09:29:00.147Z,5.72
2022-07-29T09:31:35.646Z,5.20
2022-07-29T09:34:02.599Z,5.05
2022-07-29T09:36:29.506Z,4.65
2022-07-29T09:39:04.162Z,5.20
2022-07-29T09:41:44.470Z,5.00
2022-07-29T09:44:11.338Z,4.20
2022-07-29T09:46:38.239Z,4.53
2022-07-29T09:49:10.162Z,4.03
2022-07-29T09:51:38.326Z,4.38
2022-07-29T09:54:28.696Z,3.70
2022-07-29T09:56:56.794Z,5.18
2022-07-29T09:59:27.420Z,5.32
2022-07-29T10:01:55.046Z,4.38
2022-07-29T10:04:22.481Z,4.53
2022-07-29T10:07:05.378Z,4.50
2022-07-29T10:09:34.308Z,4.38
2022-07-29T10:12:14.483Z,5.20
2022-07-29T10:14:42.328Z,4.63
2022-07-29T10:17:11.123Z,4.03
2022-07-29T10:19:39.310Z,4.40
2022-07-29T10:22:09.622Z,5.95
2022-07-29T10:24:38.333Z,3.83
2022-07-29T10:27:07.455Z,3.95
2022-07-29T10:29:35.172Z,4.28
2022-07-29T10:32:34.660Z,3.53
2022-07-29T10:35:13.170Z,5.80
2022-07-29T10:38:16.174Z,6.95
2022-07-29T10:41:19.481Z,6.95
2022-07-29T10:43:51.365Z,6.13
2022-07-29T10:46:19.595Z,6.60
2022-07-29T10:49:09.259Z,6.90
2022-07-29T10:51:51.624Z,6.43
2022-07-29T10:54:51.213Z,5.97
2022-07-29T10:57:54.341Z,7.63
2022-07-29T11:00:29.565Z,5.60
2022-07-29T11:02:59.197Z,4.80
2022-07-29T11:05:39.920Z,4.80
2022-07-29T11:08:20.389Z,3.97
2022-07-29T11:11:29.668Z,2.88
2022-07-29T11:13:57.019Z,2.00
2022-07-29T11:16:25.263Z,1.40
2022-07-29T11:19:26.375Z,1.45
2022-07-29T11:21:58.462Z,1.30
2022-07-29T11:24:33.369Z,1.17
2022-07-29T11:27:20.085Z,1.27
2022-07-29T11:29:52.099Z,1.60
2022-07-29T11:32:23.220Z,1.30
2022-07-29T11:35:19.028Z,1.20
2022-07-29T11:37:52.773Z,1.20
2022-07-29T11:40:24.616Z,1.15
2022-07-29T11:42:52.497Z,0.90
2022-07-29T11:45:42.624Z,0.90
2022-07-29T11:48:31.766Z,1.10
2022-07-29T11:51:00.088Z,1.10
2022-07-29T11:56:17.788Z,1.50
2022-07-29T11:58:45.856Z,1.75
2022-07-29T12:01:18.448Z,1.70
2022-07-29T12:03:45.224Z,1.80
2022-07-29T12:06:18.342Z,1.42
2022-07-29T12:07:02.231Z,1.40
2022-07-29T12:08:46.015Z,2.13
2022-07-29T12:11:21.305Z,2.30
2022-07-29T12:13:50.026Z,2.60
2022-07-29T12:16:26.091Z,2.97
2022-07-29T12:19:00.653Z,3.38
2022-07-29T12:21:30.227Z,4.15
2022-07-29T12:24:05.979Z,3.85
2022-07-29T12:26:36.816Z,3.63
2022-07-29T12:29:04.095Z,4.07
2022-07-29T12:31:43.537Z,3.47
2022-07-29T12:34:13.171Z,3.10
2022-07-29T12:36:41.470Z,4.07
2022-07-29T12:39:10.114Z,3.45
2022-07-29T12:41:37.022Z,2.50
2022-07-29T12:44:04.201Z,2.80
2022-07-29T12:46:31.237Z,3.03
2022-07-29T12:48:58.485Z,3.40
2022-07-29T12:51:33.985Z,3.88
2022-07-29T12:54:11.499Z,3.50
2022-07-29T12:56:43.994Z,2.50
2022-07-29T12:59:16.353Z,2.95
2022-07-29T13:01:43.385Z,2.97
2022-07-29T13:04:11.201Z,3.17
2022-07-29T13:06:41.195Z,3.38
2022-07-29T13:09:14.401Z,3.40
2022-07-29T13:11:47.921Z,3.35
2022-07-29T13:14:32.645Z,3.88
2022-07-29T13:17:08.727Z,3.97
2022-07-29T13:20:10.266Z,4.30
2022-07-29T13:22:37.042Z,4.00
2022-07-29T13:25:04.279Z,4.60
2022-07-29T13:27:33.333Z,4.55
2022-07-29T13:30:02.202Z,4.93
2022-07-29T13:32:30.834Z,4.93
2022-07-29T13:34:59.665Z,4.70
2022-07-29T13:37:27.376Z,4.97
2022-07-29T13:39:55.153Z,5.43
2022-07-29T13:42:21.903Z,4.93
2022-07-29T13:44:51.759Z,5.57
2022-07-29T13:47:22.323Z,4.90
2022-07-29T13:50:00.465Z,5.07
2022-07-29T13:52:27.214Z,5.47
2022-07-29T13:54:53.997Z,14.80
2022-07-29T13:57:20.917Z,7.50
2022-07-29T13:59:53.455Z,6.15
2022-07-29T14:02:20.904Z,4.72
2022-07-29T14:04:52.575Z,4.35
2022-07-29T14:07:29.030Z,4.30
2022-07-29T14:09:56.166Z,4.50
2022-07-29T14:12:23.880Z,4.35
2022-07-29T14:14:51.162Z,6.30
2022-07-29T14:17:18.074Z,5.57
2022-07-29T14:19:44.874Z,5.18
2022-07-29T14:22:11.671Z,5.32
2022-07-29T14:24:39.061Z,4.93
2022-07-29T14:27:07.146Z,5.75
2022-07-29T14:29:37.343Z,5.95
2022-07-29T14:32:08.370Z,5.22
2022-07-29T14:34:36.590Z,5.55
2022-07-29T14:37:06.471Z,6.13
2022-07-29T14:39:36.936Z,6.00
2022-07-29T14:42:06.498Z,5.97
2022-07-29T14:44:33.364Z,5.80
2022-07-29T14:47:01.238Z,5.82
2022-07-29T14:49:34.667Z,5.40
2022-07-29T14:52:01.562Z,10.35
2022-07-29T14:54:28.478Z,6.28
2022-07-29T14:56:58.156Z,6.03
2022-07-29T14:59:25.711Z,5.35
2022-07-29T15:01:52.541Z,5.68
2022-07-29T15:04:19.361Z,5.90
2022-07-29T15:06:46.332Z,5.78
2022-07-29T15:09:13.949Z,5.00
2022-07-29T15:11:40.851Z,5.50
2022-07-29T15:14:07.709Z,5.55
2022-07-29T15:16:37.628Z,5.00
2022-07-29T15:19:05.559Z,5.22
2022-07-29T15:21:32.605Z,5.35
2022-07-29T15:23:59.343Z,5.70
2022-07-29T15:26:26.450Z,6.43
2022-07-29T15:28:53.175Z,5.15
2022-07-29T15:31:20.069Z,5.38
2022-07-29T15:33:46.830Z,6.35
2022-07-29T15:36:35.803Z,5.57
2022-07-29T15:39:00.653Z,5.60
2022-07-29T15:41:27.565Z,5.60
2022-07-29T15:43:54.366Z,6.13
2022-07-29T15:46:40.115Z,5.53
2022-07-29T15:49:07.867Z,5.72
2022-07-29T15:51:35.144Z,5.60
2022-07-29T15:54:03.725Z,5.55
2022-07-29T15:56:31.405Z,5.93
2022-07-29T15:58:58.744Z,5.53
2022-07-29T16:01:25.646Z,5.88
2022-07-29T16:03:53.189Z,5.63
2022-07-29T16:06:20.659Z,5.75
2022-07-29T16:08:47.366Z,6.20
2022-07-29T16:11:14.163Z,6.30
2022-07-29T16:13:40.900Z,5.78
2022-07-29T16:16:08.150Z,6.20
2022-07-29T16:18:34.932Z,5.63
2022-07-29T16:21:01.745Z,5.60
2022-07-29T16:23:28.564Z,4.85
2022-07-29T16:25:59.984Z,5.15
2022-07-29T16:28:28.030Z,5.38
2022-07-29T16:30:54.738Z,4.95
2022-07-29T16:33:21.460Z,4.82
2022-07-29T16:35:48.109Z,4.63
2022-07-29T16:38:14.890Z,4.95
2022-07-29T16:40:42.207Z,5.40
2022-07-29T16:43:09.230Z,5.45
2022-07-29T16:45:43.952Z,5.60
2022-07-29T16:48:13.609Z,5.88
2022-07-29T16:50:40.977Z,5.50
2022-07-29T16:53:10.368Z,5.50
2022-07-29T16:55:37.329Z,5.32
2022-07-29T16:58:04.105Z,5.10
2022-07-29T17:00:30.970Z,4.97
2022-07-29T17:02:57.826Z,4.72
2022-07-29T17:05:24.582Z,4.88
2022-07-29T17:07:51.346Z,4.75
2022-07-29T17:10:18.257Z,4.35
2022-07-29T17:12:45.353Z,4.18
2022-07-29T17:15:12.847Z,3.90
2022-07-29T17:17:55.312Z,3.47
2022-07-29T17:20:23.751Z,3.95
2022-07-29T17:22:50.479Z,3.75
2022-07-29T17:25:20.930Z,3.50
2022-07-29T17:27:50.684Z,4.07
2022-07-29T17:30:18.515Z,3.60
2022-07-29T17:32:45.266Z,3.58
2022-07-29T17:35:30.729Z,3.78
2022-07-29T17:37:57.504Z,4.60
2022-07-29T17:40:24.440Z,3.92
2022-07-29T17:42:51.569Z,3.92
2022-07-29T17:45:18.263Z,3.83
2022-07-29T17:47:45.455Z,4.05
2022-07-29T17:50:12.215Z,3.95
2022-07-29T17:52:39.279Z,3.85
2022-07-29T17:55:07.089Z,3.83
2022-07-29T17:57:34.272Z,3.83
2022-07-29T18:00:00.969Z,3.53
2022-07-29T18:02:28.594Z,4.07
2022-07-29T18:04:55.498Z,3.83
2022-07-29T18:07:22.251Z,3.40
2022-07-29T18:09:48.964Z,3.78
2022-07-29T18:12:15.687Z,3.67
2022-07-29T18:14:42.374Z,3.80
2022-07-29T18:17:09.071Z,3.90
2022-07-29T18:19:35.803Z,3.70
2022-07-29T18:22:05.214Z,4.28
2022-07-29T18:24:32.753Z,4.13
2022-07-29T18:26:59.748Z,4.10
2022-07-29T18:29:29.041Z,4.30
2022-07-29T18:31:56.151Z,4.20
2022-07-29T18:34:22.809Z,4.15
2022-07-29T18:36:49.542Z,3.90
2022-07-29T18:39:20.722Z,4.45
2022-07-29T18:44:19.430Z,4.82
2022-07-29T18:46:49.169Z,4.88
2022-07-29T18:49:16.075Z,4.80
2022-07-29T18:51:44.171Z,4.80
2022-07-29T18:54:10.866Z,4.95
2022-07-29T18:56:37.689Z,5.65
2022-07-29T18:59:04.759Z,5.65
2022-07-29T19:01:33.007Z,5.45
2022-07-29T19:04:00.386Z,5.95
2022-07-29T19:06:27.076Z,5.43
2022-07-29T19:08:53.977Z,5.78
2022-07-29T19:11:20.694Z,5.72
2022-07-29T19:13:47.404Z,6.18
2022-07-29T19:16:14.647Z,5.72
2022-07-29T19:18:41.810Z,5.65
2022-07-29T19:21:09.046Z,5.90
2022-07-29T19:24:06.269Z,6.13
2022-07-29T19:26:23.086Z,6.13
2022-07-29T19:28:53.076Z,6.20
2022-07-29T19:31:19.795Z,6.05
2022-07-29T19:33:46.541Z,5.95
2022-07-29T19:36:13.297Z,6.32
2022-07-29T19:38:40.557Z,6.40
2022-07-29T19:41:07.380Z,6.25
2022-07-29T19:43:49.697Z,5.93
2022-07-29T19:46:20.476Z,3.85
2022-07-29T19:48:47.485Z,3.72
2022-07-29T19:51:14.296Z,4.22
2022-07-29T19:53:40.991Z,5.15
2022-07-29T19:56:08.903Z,5.20
2022-07-29T19:58:36.079Z,5.53
2022-07-29T20:01:10.308Z,5.50
2022-07-29T20:03:40.829Z,5.53
2022-07-29T20:06:07.837Z,6.10
2022-07-29T20:08:34.761Z,6.07
2022-07-29T20:11:01.626Z,6.32
2022-07-29T20:13:31.289Z,5.72
2022-07-29T20:15:58.234Z,5.97
2022-07-29T20:18:25.177Z,5.38
2022-07-29T20:20:51.965Z,5.88
2022-07-29T20:23:19.414Z,6.15
2022-07-29T20:25:46.155Z,6.25
2022-07-29T20:28:12.960Z,5.93
2022-07-29T20:30:39.834Z,5.88
2022-07-29T20:33:07.004Z,5.95
2022-07-29T20:35:34.072Z,6.68
2022-07-29T20:38:01.111Z,6.80
2022-07-29T20:40:29.258Z,7.10
2022-07-29T20:42:55.988Z,6.88
2022-07-29T20:45:23.761Z,6.47
2022-07-29T20:47:51.972Z,6.40
2022-07-29T20:50:20.576Z,6.85
2022-07-29T20:55:17.789Z,6.75
2022-07-29T20:57:44.513Z,6.47
2022-07-29T21:00:12.493Z,6.75
2022-07-29T21:02:39.237Z,10.93
2022-07-29T21:05:06.525Z,20.02
2022-07-29T21:07:33.276Z,28.95
2022-07-29T21:10:00.057Z,10.15
2022-07-29T21:12:26.929Z,7.43
2022-07-29T21:14:53.689Z,23.73
2022-07-29T21:17:22.490Z,8.63
2022-07-29T21:19:55.631Z,7.03
2022-07-29T21:22:22.588Z,7.10
2022-07-29T21:24:49.505Z,7.68
2022-07-29T21:27:35.439Z,6.88
2022-07-29T21:30:07.558Z,6.43
2022-07-29T21:32:34.382Z,6.75
2022-07-29T21:35:01.327Z,23.52
2022-07-29T21:37:28.393Z,11.90
2022-07-29T21:39:55.458Z,6.53
2022-07-29T21:42:22.329Z,6.55
2022-07-29T21:44:49.375Z,6.55
2022-07-29T21:47:16.273Z,6.35
2022-07-29T21:49:43.033Z,6.47
2022-07-29T21:52:09.746Z,6.53
2022-07-29T21:54:37.662Z,6.75
2022-07-29T21:57:05.845Z,7.38
2022-07-29T21:59:32.993Z,7.70
2022-07-29T22:02:01.891Z,10.20
2022-07-29T22:04:30.123Z,9.02
2022-07-29T22:06:59.416Z,8.70
2022-07-29T22:09:26.426Z,7.97
2022-07-29T22:11:54.345Z,7.85
2022-07-29T22:14:21.410Z,8.05
2022-07-29T22:16:49.052Z,7.40
2022-07-29T22:19:16.354Z,7.43
2022-07-29T22:21:43.509Z,7.38
2022-07-29T22:24:11.676Z,30.38
2022-07-29T22:26:39.126Z,17.95
2022-07-29T22:29:06.831Z,38.25
2022-07-29T22:31:34.074Z,14.75
2022-07-29T22:34:01.539Z,8.02
2022-07-29T22:36:28.648Z,30.05
2022-07-29T22:38:55.713Z,23.48
2022-07-29T22:41:22.695Z,18.02
2022-07-29T22:43:49.432Z,9.93
2022-07-29T22:46:16.422Z,9.07
2022-07-29T22:48:43.181Z,8.32
2022-07-29T22:51:10.103Z,7.85
2022-07-29T22:53:36.927Z,7.53
2022-07-29T22:56:04.139Z,6.78
2022-07-29T22:58:30.881Z,6.85
2022-07-29T23:00:57.831Z,7.32
2022-07-29T23:03:24.649Z,7.18
2022-07-29T23:05:51.964Z,6.90
2022-07-29T23:08:19.325Z,6.95
2022-07-29T23:10:46.168Z,6.70
2022-07-29T23:13:13.549Z,7.30
2022-07-29T23:15:40.652Z,7.13
2022-07-29T23:18:07.703Z,7.13
2022-07-29T23:20:34.532Z,6.82
2022-07-29T23:23:01.260Z,6.95
2022-07-29T23:25:28.088Z,6.07
2022-07-29T23:27:54.761Z,6.70
2022-07-29T23:30:21.556Z,6.30
2022-07-29T23:32:48.325Z,6.00
2022-07-29T23:35:15.090Z,6.32
2022-07-29T23:37:41.858Z,6.57
2022-07-29T23:40:13.792Z,6.35
2022-07-29T23:42:42.346Z,6.53
2022-07-29T23:45:10.326Z,6.97
2022-07-29T23:47:37.048Z,6.20
2022-07-29T23:50:07.944Z,6.35
2022-07-29T23:52:35.568Z,7.55
2022-07-29T23:55:36.503Z,6.80
2022-07-29T23:57:49.517Z,7.35
